This is the latest recevied weather packets stored in our database for station/object WP4NYS-13. If no packets are shown the sender has not sent any weather packets the latest 1 day(s).
| Time | Temp. | Humidity | Pressure | Rain* | Wind** | Luminosity | Snow |
|---|---|---|---|---|---|---|---|
| 1778004986 | 30° C | 40% | 1016.7 hPa | 0 mm | 0.45 m/s, 141° | - | - |
| 1778004684 | 31.11° C | 39% | 1016.8 hPa | 0 mm | 0.89 m/s, 137° | - | - |
| 1778004379 | 32.22° C | 38% | 1016.5 hPa | 0 mm | 0 m/s | - | - |
| 1778004077 | 32.22° C | 38% | 1016.5 hPa | 0 mm | 0.45 m/s, 252° | - | - |
| 1778003773 | 31.67° C | 38% | 1016.6 hPa | 0 mm | 0.89 m/s, 178° | - | - |
| 1778003470 | 30.56° C | 38% | 1016.8 hPa | 0 mm | 0 m/s | - | - |
| 1778003166 | 31.11° C | 40% | 1016.7 hPa | 0 mm | 0.45 m/s, 120° | - | - |
| 1778002862 | 30.56° C | 39% | 1016.8 hPa | 0 mm | 0 m/s | - | - |
| 1778002559 | 30.56° C | 41% | 1016.7 hPa | 0 mm | 0.45 m/s, 117° | - | - |
| 1778002256 | 29.44° C | 41% | 1017.1 hPa | 0 mm | 0.89 m/s, 224° | - | - |
| 1778001954 | 29.44° C | 43% | 1017.2 hPa | 0 mm | 0.89 m/s, 98° | - | - |
| 1778001651 | 29.44° C | 43% | 1017.1 hPa | 0 mm | 0 m/s | - | - |
| 1778001351 | 28.89° C | 45% | 1017.2 hPa | 0 mm | 0.89 m/s, 229° | - | - |
| 1778001048 | 28.33° C | 47% | 1017.1 hPa | 0 mm | 0 m/s | - | - |
| 1778000745 | 27.78° C | 47% | 1017.4 hPa | 0 mm | 0 m/s | - | - |
| 1778000441 | 27.78° C | 47% | 1017.4 hPa | 0 mm | 0.45 m/s, 135° | - | - |
| 1778000136 | 27.78° C | 46% | 1017.7 hPa | 0 mm | 0.45 m/s, 254° | - | - |
| 1777999832 | 28.33° C | 47% | 1017.7 hPa | 0 mm | 0.89 m/s, 162° | - | - |
| 1777999529 | 28.89° C | 47% | 1017.3 hPa | 0 mm | 0 m/s | - | - |
| 1777999227 | 30° C | 44% | 1017.5 hPa | 0 mm | 0.89 m/s, 27° | - | - |
| 1777998926 | 30° C | 44% | 1017.7 hPa | 0 mm | 0 m/s | - | - |
| 1777998622 | 29.44° C | 46% | 1017.5 hPa | 0 mm | 0.45 m/s, 178° | - | - |
| 1777998325 | 29.44° C | 47% | 1017.5 hPa | 0 mm | 0.89 m/s, 129° | - | - |
| 1777998018 | 29.44° C | 46% | 1017.8 hPa | 0 mm | 0.45 m/s, 125° | - | - |
| 1777997714 | 28.89° C | 46% | 1017.7 hPa | 0 mm | 0.45 m/s, 164° | - | - |
* Rain latest hour (hover to see other rain measurements)
** Current wind speed in m/s (hover to see current wind gust speed)